sensor_id;sensor_type;location;lat;lon;timestamp;temperature;humidity
1594;DHT22;790;47.000;16.084;2023-04-08T00:00:56;7.80;99.90
1594;DHT22;790;47.000;16.084;2023-04-08T00:03:26;7.80;99.90
1594;DHT22;790;47.000;16.084;2023-04-08T00:05:58;7.80;99.90
1594;DHT22;790;47.000;16.084;2023-04-08T00:08:44;7.90;99.90
1594;DHT22;790;47.000;16.084;2023-04-08T00:11:19;7.80;99.90
1594;DHT22;790;47.000;16.084;2023-04-08T00:13:54;7.80;99.90
1594;DHT22;790;47.000;16.084;2023-04-08T00:16:41;7.70;99.90
1594;DHT22;790;47.000;16.084;2023-04-08T00:19:19;7.70;99.90
1594;DHT22;790;47.000;16.084;2023-04-08T00:21:53;7.70;99.90
1594;DHT22;790;47.000;16.084;2023-04-08T00:24:22;7.70;99.90
1594;DHT22;790;47.000;16.084;2023-04-08T00:26:51;7.70;99.90
1594;DHT22;790;47.000;16.084;2023-04-08T00:29:26;7.70;99.90
1594;DHT22;790;47.000;16.084;2023-04-08T00:31:57;7.70;99.90
1594;DHT22;790;47.000;16.084;2023-04-08T00:34:25;7.70;99.90
1594;DHT22;790;47.000;16.084;2023-04-08T00:36:55;7.70;99.90
1594;DHT22;790;47.000;16.084;2023-04-08T00:39:22;7.70;99.90
1594;DHT22;790;47.000;16.084;2023-04-08T00:41:50;7.70;99.90
1594;DHT22;790;47.000;16.084;2023-04-08T00:44:18;7.70;99.90
1594;DHT22;790;47.000;16.084;2023-04-08T00:46:46;7.70;99.90
1594;DHT22;790;47.000;16.084;2023-04-08T00:49:19;7.60;99.90
1594;DHT22;790;47.000;16.084;2023-04-08T00:51:50;7.60;99.90
1594;DHT22;790;47.000;16.084;2023-04-08T00:54:31;7.60;99.90
1594;DHT22;790;47.000;16.084;2023-04-08T00:57:10;7.60;99.90
1594;DHT22;790;47.000;16.084;2023-04-08T00:59:41;7.60;99.90
1594;DHT22;790;47.000;16.084;2023-04-08T01:02:14;7.70;99.90
1594;DHT22;790;47.000;16.084;2023-04-08T01:04:54;7.70;99.90
1594;DHT22;790;47.000;16.084;2023-04-08T01:07:27;7.70;99.90
1594;DHT22;790;47.000;16.084;2023-04-08T01:10:01;7.70;99.90
1594;DHT22;790;47.000;16.084;2023-04-08T01:12:32;7.70;99.90
1594;DHT22;790;47.000;16.084;2023-04-08T01:15:11;7.70;99.90
1594;DHT22;790;47.000;16.084;2023-04-08T01:17:42;7.60;99.90
1594;DHT22;790;47.000;16.084;2023-04-08T01:20:13;7.50;99.90
1594;DHT22;790;47.000;16.084;2023-04-08T01:22:50;7.50;99.90
1594;DHT22;790;47.000;16.084;2023-04-08T01:25:30;7.50;99.90
1594;DHT22;790;47.000;16.084;2023-04-08T01:28:04;7.50;99.90
1594;DHT22;790;47.000;16.084;2023-04-08T01:30:45;7.60;99.90
1594;DHT22;790;47.000;16.084;2023-04-08T01:33:15;7.60;99.90
1594;DHT22;790;47.000;16.084;2023-04-08T01:35:59;7.70;99.90
1594;DHT22;790;47.000;16.084;2023-04-08T01:38:38;7.70;99.90
1594;DHT22;790;47.000;16.084;2023-04-08T01:41:08;7.70;99.90
1594;DHT22;790;47.000;16.084;2023-04-08T01:43:40;7.70;99.90
1594;DHT22;790;47.000;16.084;2023-04-08T01:46:10;7.70;99.90
1594;DHT22;790;47.000;16.084;2023-04-08T01:48:40;7.70;99.90
1594;DHT22;790;47.000;16.084;2023-04-08T01:51:16;7.70;99.90
1594;DHT22;790;47.000;16.084;2023-04-08T01:53:48;7.60;99.90
1594;DHT22;790;47.000;16.084;2023-04-08T01:56:17;7.60;99.90
1594;DHT22;790;47.000;16.084;2023-04-08T01:59:09;7.60;99.90
1594;DHT22;790;47.000;16.084;2023-04-08T02:01:51;7.50;99.90
1594;DHT22;790;47.000;16.084;2023-04-08T02:04:35;7.50;99.90
1594;DHT22;790;47.000;16.084;2023-04-08T02:07:04;7.60;99.90
1594;DHT22;790;47.000;16.084;2023-04-08T02:09:34;7.60;99.90
1594;DHT22;790;47.000;16.084;2023-04-08T02:12:04;7.50;99.90
1594;DHT22;790;47.000;16.084;2023-04-08T02:14:35;7.50;99.90
1594;DHT22;790;47.000;16.084;2023-04-08T02:17:07;7.60;99.90
1594;DHT22;790;47.000;16.084;2023-04-08T02:19:43;7.60;99.90
1594;DHT22;790;47.000;16.084;2023-04-08T02:22:35;7.60;99.90
1594;DHT22;790;47.000;16.084;2023-04-08T02:25:09;7.60;99.90
1594;DHT22;790;47.000;16.084;2023-04-08T02:27:45;7.70;99.90
1594;DHT22;790;47.000;16.084;2023-04-08T02:30:16;7.70;99.90
1594;DHT22;790;47.000;16.084;2023-04-08T02:32:55;7.70;99.90
1594;DHT22;790;47.000;16.084;2023-04-08T02:35:24;7.60;99.90
1594;DHT22;790;47.000;16.084;2023-04-08T02:37:53;7.60;99.90
1594;DHT22;790;47.000;16.084;2023-04-08T02:40:22;7.50;99.90
1594;DHT22;790;47.000;16.084;2023-04-08T02:42:50;7.50;99.90
1594;DHT22;790;47.000;16.084;2023-04-08T02:45:26;7.40;99.90
1594;DHT22;790;47.000;16.084;2023-04-08T02:48:05;7.30;99.90
1594;DHT22;790;47.000;16.084;2023-04-08T02:50:37;7.30;99.90
1594;DHT22;790;47.000;16.084;2023-04-08T02:53:07;7.30;99.90
1594;DHT22;790;47.000;16.084;2023-04-08T02:55:37;7.30;99.90
1594;DHT22;790;47.000;16.084;2023-04-08T02:58:14;7.30;99.90
1594;DHT22;790;47.000;16.084;2023-04-08T03:00:51;7.20;99.90
1594;DHT22;790;47.000;16.084;2023-04-08T03:03:22;7.20;99.90
1594;DHT22;790;47.000;16.084;2023-04-08T03:05:55;7.10;99.90
1594;DHT22;790;47.000;16.084;2023-04-08T03:08:29;7.10;99.90
1594;DHT22;790;47.000;16.084;2023-04-08T03:11:07;7.20;99.90
1594;DHT22;790;47.000;16.084;2023-04-08T03:13:38;7.10;99.90
1594;DHT22;790;47.000;16.084;2023-04-08T03:16:10;7.20;99.90
1594;DHT22;790;47.000;16.084;2023-04-08T03:18:38;7.20;99.90
1594;DHT22;790;47.000;16.084;2023-04-08T03:21:06;7.20;99.90
1594;DHT22;790;47.000;16.084;2023-04-08T03:23:40;7.30;99.90
1594;DHT22;790;47.000;16.084;2023-04-08T03:26:20;7.30;99.90
1594;DHT22;790;47.000;16.084;2023-04-08T03:28:53;7.30;99.90
1594;DHT22;790;47.000;16.084;2023-04-08T03:31:40;7.30;99.90
1594;DHT22;790;47.000;16.084;2023-04-08T03:34:12;7.20;99.90
1594;DHT22;790;47.000;16.084;2023-04-08T03:36:57;7.20;99.90
1594;DHT22;790;47.000;16.084;2023-04-08T03:39:26;7.20;99.90
1594;DHT22;790;47.000;16.084;2023-04-08T03:41:53;7.30;99.90
1594;DHT22;790;47.000;16.084;2023-04-08T03:44:26;7.30;99.90
1594;DHT22;790;47.000;16.084;2023-04-08T03:47:02;7.30;99.90
1594;DHT22;790;47.000;16.084;2023-04-08T03:49:29;7.40;99.90
1594;DHT22;790;47.000;16.084;2023-04-08T03:52:05;7.40;99.90
1594;DHT22;790;47.000;16.084;2023-04-08T03:54:37;7.30;99.90
1594;DHT22;790;47.000;16.084;2023-04-08T03:57:12;7.40;99.90
1594;DHT22;790;47.000;16.084;2023-04-08T03:59:54;7.40;99.90
1594;DHT22;790;47.000;16.084;2023-04-08T04:02:53;7.40;99.90
1594;DHT22;790;47.000;16.084;2023-04-08T04:05:28;7.50;99.90
1594;DHT22;790;47.000;16.084;2023-04-08T04:08:04;7.40;99.90
1594;DHT22;790;47.000;16.084;2023-04-08T04:10:47;7.30;99.90
1594;DHT22;790;47.000;16.084;2023-04-08T04:13:35;7.30;99.90
1594;DHT22;790;47.000;16.084;2023-04-08T04:16:06;7.20;99.90
1594;DHT22;790;47.000;16.084;2023-04-08T04:18:36;7.20;99.90
1594;DHT22;790;47.000;16.084;2023-04-08T04:21:05;7.30;99.90
1594;DHT22;790;47.000;16.084;2023-04-08T04:23:37;7.20;99.90
1594;DHT22;790;47.000;16.084;2023-04-08T04:26:09;7.20;99.90
1594;DHT22;790;47.000;16.084;2023-04-08T04:28:42;7.20;99.90
1594;DHT22;790;47.000;16.084;2023-04-08T04:31:18;7.20;99.90
1594;DHT22;790;47.000;16.084;2023-04-08T04:33:54;7.20;99.90
1594;DHT22;790;47.000;16.084;2023-04-08T04:36:24;7.10;99.90
1594;DHT22;790;47.000;16.084;2023-04-08T04:38:56;7.00;99.90
1594;DHT22;790;47.000;16.084;2023-04-08T04:41:26;7.10;99.90
1594;DHT22;790;47.000;16.084;2023-04-08T04:43:55;7.10;99.90
1594;DHT22;790;47.000;16.084;2023-04-08T04:46:26;7.20;99.90
1594;DHT22;790;47.000;16.084;2023-04-08T04:48:56;7.20;99.90
1594;DHT22;790;47.000;16.084;2023-04-08T04:51:30;7.10;99.90
1594;DHT22;790;47.000;16.084;2023-04-08T04:53:58;7.10;99.90
1594;DHT22;790;47.000;16.084;2023-04-08T04:56:27;7.20;99.90
1594;DHT22;790;47.000;16.084;2023-04-08T04:59:04;7.10;99.90
1594;DHT22;790;47.000;16.084;2023-04-08T05:01:47;7.20;99.90
1594;DHT22;790;47.000;16.084;2023-04-08T05:04:27;7.20;99.90
1594;DHT22;790;47.000;16.084;2023-04-08T05:07:04;7.30;99.90
1594;DHT22;790;47.000;16.084;2023-04-08T05:09:33;7.30;99.90
1594;DHT22;790;47.000;16.084;2023-04-08T05:12:10;7.30;99.90
1594;DHT22;790;47.000;16.084;2023-04-08T05:14:40;7.30;99.90
1594;DHT22;790;47.000;16.084;2023-04-08T05:17:08;7.30;99.90
1594;DHT22;790;47.000;16.084;2023-04-08T05:19:44;7.20;99.90
1594;DHT22;790;47.000;16.084;2023-04-08T05:22:16;7.20;99.90
1594;DHT22;790;47.000;16.084;2023-04-08T05:24:45;7.30;99.90
1594;DHT22;790;47.000;16.084;2023-04-08T05:27:13;7.20;99.90
1594;DHT22;790;47.000;16.084;2023-04-08T05:29:41;7.20;99.90
1594;DHT22;790;47.000;16.084;2023-04-08T05:32:09;7.30;99.90
1594;DHT22;790;47.000;16.084;2023-04-08T05:34:37;7.30;99.90
1594;DHT22;790;47.000;16.084;2023-04-08T05:37:06;7.30;99.90
1594;DHT22;790;47.000;16.084;2023-04-08T05:39:38;7.30;99.90
1594;DHT22;790;47.000;16.084;2023-04-08T05:42:10;7.40;99.90
1594;DHT22;790;47.000;16.084;2023-04-08T05:44:41;7.50;99.90
1594;DHT22;790;47.000;16.084;2023-04-08T05:47:09;7.50;99.90
1594;DHT22;790;47.000;16.084;2023-04-08T05:49:38;7.50;99.90
1594;DHT22;790;47.000;16.084;2023-04-08T05:52:08;7.50;99.90
1594;DHT22;790;47.000;16.084;2023-04-08T05:54:35;7.50;99.90
1594;DHT22;790;47.000;16.084;2023-04-08T05:57:03;7.40;99.90
1594;DHT22;790;47.000;16.084;2023-04-08T05:59:33;7.30;99.90
1594;DHT22;790;47.000;16.084;2023-04-08T06:02:03;7.20;99.90
1594;DHT22;790;47.000;16.084;2023-04-08T06:04:31;7.10;99.90
1594;DHT22;790;47.000;16.084;2023-04-08T06:06:58;7.00;99.90
1594;DHT22;790;47.000;16.084;2023-04-08T06:09:34;7.00;99.90
1594;DHT22;790;47.000;16.084;2023-04-08T06:12:03;7.10;99.90
1594;DHT22;790;47.000;16.084;2023-04-08T06:14:30;7.20;99.90
1594;DHT22;790;47.000;16.084;2023-04-08T06:16:58;7.30;99.90
1594;DHT22;790;47.000;16.084;2023-04-08T06:19:25;7.30;99.90
1594;DHT22;790;47.000;16.084;2023-04-08T06:21:53;7.30;99.90
1594;DHT22;790;47.000;16.084;2023-04-08T06:24:25;7.40;99.90
1594;DHT22;790;47.000;16.084;2023-04-08T06:26:54;7.40;99.90
1594;DHT22;790;47.000;16.084;2023-04-08T06:29:22;7.50;99.90
1594;DHT22;790;47.000;16.084;2023-04-08T06:31:51;7.50;99.90
1594;DHT22;790;47.000;16.084;2023-04-08T06:34:19;7.50;99.90
1594;DHT22;790;47.000;16.084;2023-04-08T06:36:47;7.40;99.90
1594;DHT22;790;47.000;16.084;2023-04-08T06:39:17;7.40;99.90
1594;DHT22;790;47.000;16.084;2023-04-08T06:41:46;7.40;99.90
1594;DHT22;790;47.000;16.084;2023-04-08T06:44:17;7.50;99.90
1594;DHT22;790;47.000;16.084;2023-04-08T06:46:45;7.50;99.90
1594;DHT22;790;47.000;16.084;2023-04-08T06:49:12;7.50;99.90
1594;DHT22;790;47.000;16.084;2023-04-08T06:51:40;7.50;99.90
1594;DHT22;790;47.000;16.084;2023-04-08T06:54:07;7.60;99.90
1594;DHT22;790;47.000;16.084;2023-04-08T06:56:37;7.60;99.90
1594;DHT22;790;47.000;16.084;2023-04-08T06:59:04;7.50;99.90
1594;DHT22;790;47.000;16.084;2023-04-08T07:01:36;7.50;99.90
1594;DHT22;790;47.000;16.084;2023-04-08T07:04:04;7.60;99.90
1594;DHT22;790;47.000;16.084;2023-04-08T07:06:32;7.60;99.90
1594;DHT22;790;47.000;16.084;2023-04-08T07:08:59;7.70;99.90
1594;DHT22;790;47.000;16.084;2023-04-08T07:11:26;7.70;99.90
1594;DHT22;790;47.000;16.084;2023-04-08T07:13:55;7.70;99.90
1594;DHT22;790;47.000;16.084;2023-04-08T07:16:22;7.60;99.90
1594;DHT22;790;47.000;16.084;2023-04-08T07:18:52;7.60;99.90
1594;DHT22;790;47.000;16.084;2023-04-08T07:21:19;7.70;99.90
1594;DHT22;790;47.000;16.084;2023-04-08T07:23:47;7.70;99.90
1594;DHT22;790;47.000;16.084;2023-04-08T07:26:14;7.70;99.90
1594;DHT22;790;47.000;16.084;2023-04-08T07:28:44;7.60;99.90
1594;DHT22;790;47.000;16.084;2023-04-08T07:31:15;7.60;99.90
1594;DHT22;790;47.000;16.084;2023-04-08T07:33:44;7.60;99.90
1594;DHT22;790;47.000;16.084;2023-04-08T07:36:14;7.50;99.90
1594;DHT22;790;47.000;16.084;2023-04-08T07:38:43;7.50;99.90
1594;DHT22;790;47.000;16.084;2023-04-08T07:41:10;7.50;99.90
1594;DHT22;790;47.000;16.084;2023-04-08T07:43:38;7.50;99.90
1594;DHT22;790;47.000;16.084;2023-04-08T07:46:06;7.50;99.90
1594;DHT22;790;47.000;16.084;2023-04-08T07:48:34;7.50;99.90
1594;DHT22;790;47.000;16.084;2023-04-08T07:51:05;7.50;99.90
1594;DHT22;790;47.000;16.084;2023-04-08T07:53:34;7.40;99.90
1594;DHT22;790;47.000;16.084;2023-04-08T07:56:01;7.30;99.90
1594;DHT22;790;47.000;16.084;2023-04-08T07:58:31;7.20;99.90
1594;DHT22;790;47.000;16.084;2023-04-08T08:00:58;7.20;99.90
1594;DHT22;790;47.000;16.084;2023-04-08T08:03:25;7.30;99.90
1594;DHT22;790;47.000;16.084;2023-04-08T08:05:53;7.40;99.90
1594;DHT22;790;47.000;16.084;2023-04-08T08:08:22;7.50;99.90
1594;DHT22;790;47.000;16.084;2023-04-08T08:10:51;7.50;99.90
1594;DHT22;790;47.000;16.084;2023-04-08T08:13:19;7.50;99.90
1594;DHT22;790;47.000;16.084;2023-04-08T08:15:53;7.60;99.90
1594;DHT22;790;47.000;16.084;2023-04-08T08:18:22;7.60;99.90
1594;DHT22;790;47.000;16.084;2023-04-08T08:20:53;7.60;99.90
1594;DHT22;790;47.000;16.084;2023-04-08T08:23:20;7.60;99.90
1594;DHT22;790;47.000;16.084;2023-04-08T08:26:00;7.60;99.90
1594;DHT22;790;47.000;16.084;2023-04-08T08:28:28;7.60;99.90
1594;DHT22;790;47.000;16.084;2023-04-08T08:30:55;7.60;99.90
1594;DHT22;790;47.000;16.084;2023-04-08T08:33:25;7.50;99.90
1594;DHT22;790;47.000;16.084;2023-04-08T08:35:52;7.60;99.90
1594;DHT22;790;47.000;16.084;2023-04-08T08:38:20;7.60;99.90
1594;DHT22;790;47.000;16.084;2023-04-08T08:40:55;7.60;99.90
1594;DHT22;790;47.000;16.084;2023-04-08T08:43:24;7.70;99.90
1594;DHT22;790;47.000;16.084;2023-04-08T08:45:52;7.70;99.90
1594;DHT22;790;47.000;16.084;2023-04-08T08:48:19;7.80;99.90
1594;DHT22;790;47.000;16.084;2023-04-08T08:50:47;7.90;99.90
1594;DHT22;790;47.000;16.084;2023-04-08T08:53:14;8.10;99.90
1594;DHT22;790;47.000;16.084;2023-04-08T08:55:41;8.00;99.90
1594;DHT22;790;47.000;16.084;2023-04-08T08:58:09;8.00;99.90
1594;DHT22;790;47.000;16.084;2023-04-08T09:00:40;8.10;99.90
1594;DHT22;790;47.000;16.084;2023-04-08T09:03:17;8.20;99.90
1594;DHT22;790;47.000;16.084;2023-04-08T09:05:48;8.20;99.90
1594;DHT22;790;47.000;16.084;2023-04-08T09:08:29;8.20;99.90
1594;DHT22;790;47.000;16.084;2023-04-08T09:11:14;8.20;99.90
1594;DHT22;790;47.000;16.084;2023-04-08T09:13:43;8.10;99.90
1594;DHT22;790;47.000;16.084;2023-04-08T09:16:13;8.10;99.90
1594;DHT22;790;47.000;16.084;2023-04-08T09:18:43;8.00;99.90
1594;DHT22;790;47.000;16.084;2023-04-08T09:21:14;7.90;99.90
1594;DHT22;790;47.000;16.084;2023-04-08T09:23:45;8.00;99.90
1594;DHT22;790;47.000;16.084;2023-04-08T09:26:13;8.10;99.90
1594;DHT22;790;47.000;16.084;2023-04-08T09:28:43;8.10;99.90
1594;DHT22;790;47.000;16.084;2023-04-08T09:31:21;8.20;99.90
1594;DHT22;790;47.000;16.084;2023-04-08T09:33:52;8.20;99.90
1594;DHT22;790;47.000;16.084;2023-04-08T09:36:21;8.20;99.90
1594;DHT22;790;47.000;16.084;2023-04-08T09:38:48;8.20;99.90
1594;DHT22;790;47.000;16.084;2023-04-08T09:41:17;8.20;99.90
1594;DHT22;790;47.000;16.084;2023-04-08T09:43:47;8.10;99.90
1594;DHT22;790;47.000;16.084;2023-04-08T09:46:15;8.00;99.90
1594;DHT22;790;47.000;16.084;2023-04-08T09:48:55;7.90;99.90
1594;DHT22;790;47.000;16.084;2023-04-08T09:51:26;7.80;99.90
1594;DHT22;790;47.000;16.084;2023-04-08T09:54:00;7.80;99.90
1594;DHT22;790;47.000;16.084;2023-04-08T09:56:36;7.90;99.90
1594;DHT22;790;47.000;16.084;2023-04-08T09:59:11;7.90;99.90
1594;DHT22;790;47.000;16.084;2023-04-08T10:01:45;8.00;99.90
1594;DHT22;790;47.000;16.084;2023-04-08T10:04:19;8.00;99.90
1594;DHT22;790;47.000;16.084;2023-04-08T10:06:51;8.00;99.90
1594;DHT22;790;47.000;16.084;2023-04-08T10:09:20;8.10;99.90
1594;DHT22;790;47.000;16.084;2023-04-08T10:11:47;8.10;99.90
1594;DHT22;790;47.000;16.084;2023-04-08T10:14:15;8.10;99.90
1594;DHT22;790;47.000;16.084;2023-04-08T10:16:42;8.20;99.90
1594;DHT22;790;47.000;16.084;2023-04-08T10:19:38;8.20;99.90
1594;DHT22;790;47.000;16.084;2023-04-08T10:25:28;8.10;99.90
1594;DHT22;790;47.000;16.084;2023-04-08T10:27:56;8.10;99.90
1594;DHT22;790;47.000;16.084;2023-04-08T10:30:41;8.10;99.90
1594;DHT22;790;47.000;16.084;2023-04-08T10:33:10;8.10;99.90
1594;DHT22;790;47.000;16.084;2023-04-08T10:35:41;8.10;99.90
1594;DHT22;790;47.000;16.084;2023-04-08T10:38:12;7.90;99.90
1594;DHT22;790;47.000;16.084;2023-04-08T10:40:40;7.70;99.90
1594;DHT22;790;47.000;16.084;2023-04-08T10:43:09;7.50;99.90
1594;DHT22;790;47.000;16.084;2023-04-08T10:45:36;7.60;99.90
1594;DHT22;790;47.000;16.084;2023-04-08T10:48:14;7.70;99.90
1594;DHT22;790;47.000;16.084;2023-04-08T10:50:44;7.70;99.90
1594;DHT22;790;47.000;16.084;2023-04-08T10:53:26;7.70;99.90
1594;DHT22;790;47.000;16.084;2023-04-08T10:55:55;7.90;99.90
1594;DHT22;790;47.000;16.084;2023-04-08T10:58:34;8.00;99.90
1594;DHT22;790;47.000;16.084;2023-04-08T11:01:03;8.10;99.90
1594;DHT22;790;47.000;16.084;2023-04-08T11:03:32;8.10;99.90
1594;DHT22;790;47.000;16.084;2023-04-08T11:06:02;8.20;99.90
1594;DHT22;790;47.000;16.084;2023-04-08T11:08:29;8.30;99.90
1594;DHT22;790;47.000;16.084;2023-04-08T11:10:59;8.40;99.90
1594;DHT22;790;47.000;16.084;2023-04-08T11:13:27;8.40;99.90
1594;DHT22;790;47.000;16.084;2023-04-08T11:15:57;8.30;99.90
1594;DHT22;790;47.000;16.084;2023-04-08T11:18:25;8.30;99.90
1594;DHT22;790;47.000;16.084;2023-04-08T11:20:54;8.40;99.90
1594;DHT22;790;47.000;16.084;2023-04-08T11:23:25;8.40;99.90
1594;DHT22;790;47.000;16.084;2023-04-08T11:25:54;8.40;99.90
1594;DHT22;790;47.000;16.084;2023-04-08T11:28:24;8.50;99.90
1594;DHT22;790;47.000;16.084;2023-04-08T11:30:51;8.60;99.90
1594;DHT22;790;47.000;16.084;2023-04-08T11:33:21;8.60;99.90
1594;DHT22;790;47.000;16.084;2023-04-08T11:35:51;8.50;99.90
1594;DHT22;790;47.000;16.084;2023-04-08T11:38:21;8.50;99.90
1594;DHT22;790;47.000;16.084;2023-04-08T11:40:53;8.40;99.90
1594;DHT22;790;47.000;16.084;2023-04-08T11:43:21;8.40;99.90
1594;DHT22;790;47.000;16.084;2023-04-08T11:45:49;8.40;99.90
1594;DHT22;790;47.000;16.084;2023-04-08T11:48:16;8.30;99.90
1594;DHT22;790;47.000;16.084;2023-04-08T11:50:44;8.30;99.90
1594;DHT22;790;47.000;16.084;2023-04-08T11:53:18;8.30;99.90
1594;DHT22;790;47.000;16.084;2023-04-08T11:55:46;8.20;99.90
1594;DHT22;790;47.000;16.084;2023-04-08T11:58:14;8.20;99.90
1594;DHT22;790;47.000;16.084;2023-04-08T12:00:42;8.20;99.90
1594;DHT22;790;47.000;16.084;2023-04-08T12:03:10;8.10;99.90
1594;DHT22;790;47.000;16.084;2023-04-08T12:05:38;8.00;99.90
1594;DHT22;790;47.000;16.084;2023-04-08T12:08:05;8.10;99.90
1594;DHT22;790;47.000;16.084;2023-04-08T12:10:32;8.10;99.90
1594;DHT22;790;47.000;16.084;2023-04-08T12:13:01;8.10;99.90
1594;DHT22;790;47.000;16.084;2023-04-08T12:15:34;8.10;99.90
1594;DHT22;790;47.000;16.084;2023-04-08T12:18:02;8.10;99.90
1594;DHT22;790;47.000;16.084;2023-04-08T12:20:30;8.20;99.90
1594;DHT22;790;47.000;16.084;2023-04-08T12:22:58;8.10;99.90
1594;DHT22;790;47.000;16.084;2023-04-08T12:25:25;8.20;99.90
1594;DHT22;790;47.000;16.084;2023-04-08T12:27:55;8.10;99.90
1594;DHT22;790;47.000;16.084;2023-04-08T12:30:22;8.10;99.90
1594;DHT22;790;47.000;16.084;2023-04-08T12:32:51;8.00;99.90
1594;DHT22;790;47.000;16.084;2023-04-08T12:35:20;8.00;99.90
1594;DHT22;790;47.000;16.084;2023-04-08T12:37:47;8.10;99.90
1594;DHT22;790;47.000;16.084;2023-04-08T12:40:14;8.00;99.90
1594;DHT22;790;47.000;16.084;2023-04-08T12:42:43;8.00;99.90
1594;DHT22;790;47.000;16.084;2023-04-08T12:45:10;8.00;99.90
1594;DHT22;790;47.000;16.084;2023-04-08T12:47:38;8.00;99.90
1594;DHT22;790;47.000;16.084;2023-04-08T12:50:08;8.10;99.90
1594;DHT22;790;47.000;16.084;2023-04-08T12:52:36;8.10;99.90
1594;DHT22;790;47.000;16.084;2023-04-08T12:55:04;8.10;99.90
1594;DHT22;790;47.000;16.084;2023-04-08T12:57:32;8.10;99.90
1594;DHT22;790;47.000;16.084;2023-04-08T12:59:59;8.10;99.90
1594;DHT22;790;47.000;16.084;2023-04-08T13:02:26;8.10;99.90
1594;DHT22;790;47.000;16.084;2023-04-08T13:04:53;8.10;99.90
1594;DHT22;790;47.000;16.084;2023-04-08T13:07:22;8.10;99.90
1594;DHT22;790;47.000;16.084;2023-04-08T13:09:49;8.10;99.90
1594;DHT22;790;47.000;16.084;2023-04-08T13:12:16;8.00;99.90
1594;DHT22;790;47.000;16.084;2023-04-08T13:14:44;8.00;99.90
1594;DHT22;790;47.000;16.084;2023-04-08T13:17:11;7.90;99.90
1594;DHT22;790;47.000;16.084;2023-04-08T13:19:38;7.90;99.90
1594;DHT22;790;47.000;16.084;2023-04-08T13:22:06;7.80;99.90
1594;DHT22;790;47.000;16.084;2023-04-08T13:24:35;7.90;99.90
1594;DHT22;790;47.000;16.084;2023-04-08T13:27:02;7.90;99.90
1594;DHT22;790;47.000;16.084;2023-04-08T13:29:29;7.90;99.90
1594;DHT22;790;47.000;16.084;2023-04-08T13:31:57;8.00;99.90
1594;DHT22;790;47.000;16.084;2023-04-08T13:34:24;7.90;99.90
1594;DHT22;790;47.000;16.084;2023-04-08T13:36:51;8.00;99.90
1594;DHT22;790;47.000;16.084;2023-04-08T13:39:18;7.90;99.90
1594;DHT22;790;47.000;16.084;2023-04-08T13:41:47;7.90;99.90
1594;DHT22;790;47.000;16.084;2023-04-08T13:44:14;7.90;99.90
1594;DHT22;790;47.000;16.084;2023-04-08T13:46:41;8.00;99.90
1594;DHT22;790;47.000;16.084;2023-04-08T13:49:09;7.90;99.90
1594;DHT22;790;47.000;16.084;2023-04-08T13:51:37;7.90;99.90
1594;DHT22;790;47.000;16.084;2023-04-08T13:54:04;7.90;99.90
1594;DHT22;790;47.000;16.084;2023-04-08T13:56:31;7.90;99.90
1594;DHT22;790;47.000;16.084;2023-04-08T13:59:00;8.00;99.90
1594;DHT22;790;47.000;16.084;2023-04-08T14:01:27;8.00;99.90
1594;DHT22;790;47.000;16.084;2023-04-08T14:03:54;8.00;99.90
1594;DHT22;790;47.000;16.084;2023-04-08T14:06:21;8.10;99.90
1594;DHT22;790;47.000;16.084;2023-04-08T14:08:49;8.10;99.90
1594;DHT22;790;47.000;16.084;2023-04-08T14:11:16;8.10;99.90
1594;DHT22;790;47.000;16.084;2023-04-08T14:13:43;8.10;99.90
1594;DHT22;790;47.000;16.084;2023-04-08T14:16:14;8.20;99.90
1594;DHT22;790;47.000;16.084;2023-04-08T14:18:41;8.20;99.90
1594;DHT22;790;47.000;16.084;2023-04-08T14:21:08;8.20;99.90
1594;DHT22;790;47.000;16.084;2023-04-08T14:23:35;8.30;99.90
1594;DHT22;790;47.000;16.084;2023-04-08T14:26:02;8.30;99.90
1594;DHT22;790;47.000;16.084;2023-04-08T14:28:30;8.30;99.90
1594;DHT22;790;47.000;16.084;2023-04-08T14:30:58;8.20;99.90
1594;DHT22;790;47.000;16.084;2023-04-08T14:33:26;8.10;99.90
1594;DHT22;790;47.000;16.084;2023-04-08T14:35:54;8.10;99.90
1594;DHT22;790;47.000;16.084;2023-04-08T14:38:23;8.10;99.90
1594;DHT22;790;47.000;16.084;2023-04-08T14:40:51;8.10;99.90
1594;DHT22;790;47.000;16.084;2023-04-08T14:43:19;8.20;99.90
1594;DHT22;790;47.000;16.084;2023-04-08T14:45:49;8.20;99.90
1594;DHT22;790;47.000;16.084;2023-04-08T14:48:17;8.30;99.90
1594;DHT22;790;47.000;16.084;2023-04-08T14:50:46;8.30;99.90
1594;DHT22;790;47.000;16.084;2023-04-08T14:53:13;8.30;99.90
1594;DHT22;790;47.000;16.084;2023-04-08T14:55:43;8.10;99.90
1594;DHT22;790;47.000;16.084;2023-04-08T14:58:12;8.10;99.90
1594;DHT22;790;47.000;16.084;2023-04-08T15:00:40;8.20;99.90
1594;DHT22;790;47.000;16.084;2023-04-08T15:03:13;8.20;99.90
1594;DHT22;790;47.000;16.084;2023-04-08T15:05:41;8.20;99.90
1594;DHT22;790;47.000;16.084;2023-04-08T15:08:12;8.20;99.90
1594;DHT22;790;47.000;16.084;2023-04-08T15:10:40;8.10;99.90
1594;DHT22;790;47.000;16.084;2023-04-08T15:13:09;8.00;99.90
1594;DHT22;790;47.000;16.084;2023-04-08T15:15:36;8.00;99.90
1594;DHT22;790;47.000;16.084;2023-04-08T15:18:04;7.90;99.90
1594;DHT22;790;47.000;16.084;2023-04-08T15:20:31;7.90;99.90
1594;DHT22;790;47.000;16.084;2023-04-08T15:23:01;7.80;99.90
1594;DHT22;790;47.000;16.084;2023-04-08T15:25:31;7.70;99.90
1594;DHT22;790;47.000;16.084;2023-04-08T15:27:59;7.80;99.90
1594;DHT22;790;47.000;16.084;2023-04-08T15:30:28;7.90;99.90
1594;DHT22;790;47.000;16.084;2023-04-08T15:33:02;7.90;99.90
1594;DHT22;790;47.000;16.084;2023-04-08T15:35:31;7.90;99.90
1594;DHT22;790;47.000;16.084;2023-04-08T15:37:59;7.90;99.90
1594;DHT22;790;47.000;16.084;2023-04-08T15:40:26;7.90;99.90
1594;DHT22;790;47.000;16.084;2023-04-08T15:42:56;7.90;99.90
1594;DHT22;790;47.000;16.084;2023-04-08T15:45:23;7.80;99.90
1594;DHT22;790;47.000;16.084;2023-04-08T15:47:51;7.80;99.90
1594;DHT22;790;47.000;16.084;2023-04-08T15:50:19;7.90;99.90
1594;DHT22;790;47.000;16.084;2023-04-08T15:52:47;7.90;99.90
1594;DHT22;790;47.000;16.084;2023-04-08T15:55:14;7.70;99.90
1594;DHT22;790;47.000;16.084;2023-04-08T15:57:42;7.70;99.90
1594;DHT22;790;47.000;16.084;2023-04-08T16:00:13;7.70;99.90
1594;DHT22;790;47.000;16.084;2023-04-08T16:02:40;7.80;99.90
1594;DHT22;790;47.000;16.084;2023-04-08T16:05:08;7.70;99.90
1594;DHT22;790;47.000;16.084;2023-04-08T16:07:37;7.70;99.90
1594;DHT22;790;47.000;16.084;2023-04-08T16:10:05;7.60;99.90
1594;DHT22;790;47.000;16.084;2023-04-08T16:12:33;7.60;99.90
1594;DHT22;790;47.000;16.084;2023-04-08T16:15:00;7.80;99.90
1594;DHT22;790;47.000;16.084;2023-04-08T16:17:29;7.70;99.90
1594;DHT22;790;47.000;16.084;2023-04-08T16:19:57;7.80;99.90
1594;DHT22;790;47.000;16.084;2023-04-08T16:22:26;7.70;99.90
1594;DHT22;790;47.000;16.084;2023-04-08T16:24:54;7.70;99.90
1594;DHT22;790;47.000;16.084;2023-04-08T16:27:21;7.60;99.90
1594;DHT22;790;47.000;16.084;2023-04-08T16:29:49;7.60;99.90
1594;DHT22;790;47.000;16.084;2023-04-08T16:32:16;7.60;99.90
1594;DHT22;790;47.000;16.084;2023-04-08T16:34:47;7.60;99.90
1594;DHT22;790;47.000;16.084;2023-04-08T16:37:16;7.50;99.90
1594;DHT22;790;47.000;16.084;2023-04-08T16:39:44;7.50;99.90
1594;DHT22;790;47.000;16.084;2023-04-08T16:42:12;7.60;99.90